Hauptseite
METAR-TAF:

METAR-TAF

Flughäfen :

RAF Fairford

Fairford, England

Breite: 51-41N, Länge: 001-47W, Höhe: 87 m

Beobachtung

Neuester Wetterbericht von vor 14 Minuten, um 23:44 UTC
Windstille
Temperatur 6°C
Luftfeuchtigkeit 75%
Luftdruck 1022 hPa
Sichtweite 10 km oder mehr
Durchbrochene Bewölkung in der Höhe von 4600 ft
Durchbrochene Bewölkung in der Höhe von 5500 ft

METAR: EGVA 232344Z AUTO 00000KT 9999 BKN046 BKN055 06/02 A3018 RMK AO2 RAB28E39 SLP225 $

Zeit: 23:58 (23:58 UTC)


TAF: fehlend

Wetterbeobachtungen und Prognosen von mehr als 4000 Flughäfen (METAR und TAF Bericht).

Die verfügbaren Stationen werden durch gelbe und rote Markierungen auf der Karte dargestellt.

Führen Sie die Maus auf sie, um den Namen der Station zu sehen.

Darauf klicken, um die Beobachtung von Wetterbeobachtungen und Prognosen zu sehen.

Um die Karte zu ändern : klicken Sie auf den grünen Tasten mit einem schwarzen Kreuz Zum Vergrößern, auf den grünen Button mit einem Gedankenstrich zu verkleinern, oder auf die grünen Pfeile für benachbarte Karten.


METAR-TAF: